createdAt,value
2023-03-24T00:03:19.432Z,99824.23
2023-03-24T00:06:49.367Z,99820.36
2023-03-24T00:10:18.585Z,99825.51
2023-03-24T00:13:47.314Z,99824.40
2023-03-24T00:17:17.703Z,99824.39
2023-03-24T00:20:46.375Z,99825.46
2023-03-24T00:24:14.632Z,99825.48
2023-03-24T00:27:41.930Z,99818.06
2023-03-24T00:31:11.033Z,99820.77
2023-03-24T00:34:38.656Z,99819.63
2023-03-24T00:38:06.003Z,99812.79
2023-03-24T00:41:33.342Z,99810.29
2023-03-24T00:45:00.320Z,99806.23
2023-03-24T00:48:27.480Z,99796.77
2023-03-24T00:51:58.185Z,99792.68
2023-03-24T00:55:28.651Z,99788.58
2023-03-24T00:58:57.840Z,99779.94
2023-03-24T01:02:27.851Z,99781.05
2023-03-24T01:05:57.832Z,99776.42
2023-03-24T01:09:25.426Z,99768.65
2023-03-24T01:12:52.527Z,99763.29
2023-03-24T01:16:20.399Z,99758.28
2023-03-24T01:19:47.557Z,99759.35
2023-03-24T01:23:17.325Z,99763.73
2023-03-24T01:26:44.539Z,99763.25
2023-03-24T01:30:15.285Z,99759.66
2023-03-24T01:33:42.695Z,99765.13
2023-03-24T01:37:09.935Z,99763.27
2023-03-24T01:40:38.957Z,99754.10
2023-03-24T01:44:27.309Z,99750.82
2023-03-24T01:47:54.493Z,99741.81
2023-03-24T01:51:24.642Z,99743.23
2023-03-24T01:54:54.694Z,99737.34
2023-03-24T01:58:24.316Z,99727.94
2023-03-24T02:02:10.035Z,99722.89
2023-03-24T02:05:58.852Z,99720.45
2023-03-24T02:09:26.186Z,99717.67
2023-03-24T02:12:53.685Z,99712.77
2023-03-24T02:16:34.522Z,99708.20
2023-03-24T02:20:27.756Z,99705.73
2023-03-24T02:24:18.135Z,99703.09
2023-03-24T02:28:07.170Z,99697.48
2023-03-24T02:31:55.922Z,99696.60
2023-03-24T02:35:44.984Z,99692.08
2023-03-24T02:39:32.325Z,99690.52
2023-03-24T02:43:11.108Z,99688.08
2023-03-24T02:46:46.196Z,99683.03
2023-03-24T02:50:27.064Z,99683.74
2023-03-24T02:54:04.467Z,99680.27
2023-03-24T02:57:37.044Z,99677.65
2023-03-24T03:01:13.923Z,99675.08
2023-03-24T03:05:14.014Z,99670.40
2023-03-24T03:08:42.817Z,99667.66
2023-03-24T03:12:12.930Z,99659.36
2023-03-24T03:15:44.275Z,99658.38
2023-03-24T03:19:18.207Z,99657.91
2023-03-24T03:22:49.915Z,99653.42
2023-03-24T03:26:20.122Z,99647.34
2023-03-24T03:29:54.486Z,99641.42
2023-03-24T03:33:26.255Z,99640.91
2023-03-24T03:37:00.065Z,99637.42
2023-03-24T03:40:32.826Z,99633.04
2023-03-24T03:44:05.807Z,99625.19
2023-03-24T03:47:34.546Z,99619.08
2023-03-24T03:51:12.929Z,99614.55
2023-03-24T03:54:43.857Z,99605.80
2023-03-24T03:58:11.263Z,99601.61
2023-03-24T04:01:42.055Z,99600.89
2023-03-24T04:05:36.957Z,99595.49
2023-03-24T04:09:19.882Z,99592.35
2023-03-24T04:13:01.204Z,99590.46
2023-03-24T04:17:15.882Z,99590.30
2023-03-24T04:20:52.082Z,99588.76
2023-03-24T04:24:29.748Z,99594.48
2023-03-24T04:28:03.811Z,99585.98
2023-03-24T04:31:37.322Z,99576.41
2023-03-24T04:35:10.034Z,99579.74
2023-03-24T04:39:05.197Z,99571.08
2023-03-24T04:42:45.324Z,99562.92
2023-03-24T04:46:18.089Z,99556.33
2023-03-24T04:50:12.611Z,99550.59
2023-03-24T04:53:40.164Z,99548.88
2023-03-24T04:57:08.081Z,99546.31
2023-03-24T05:00:45.157Z,99547.38
2023-03-24T05:04:14.018Z,99548.10
2023-03-24T05:07:41.169Z,99543.09
2023-03-24T05:11:11.362Z,99534.24
2023-03-24T05:14:42.073Z,99528.34
2023-03-24T05:18:10.164Z,99523.84
2023-03-24T05:21:37.563Z,99523.88
2023-03-24T05:25:06.314Z,99521.30
2023-03-24T05:28:33.940Z,99516.77
2023-03-24T05:32:01.890Z,99517.14
2023-03-24T05:35:30.739Z,99514.02
2023-03-24T05:38:57.880Z,99511.92
2023-03-24T05:42:31.726Z,99511.05
2023-03-24T05:46:00.278Z,99511.93
2023-03-24T05:49:30.753Z,99502.84
2023-03-24T05:52:58.426Z,99499.52
2023-03-24T05:56:49.372Z,99493.59
2023-03-24T06:00:27.255Z,99485.02
2023-03-24T06:03:58.401Z,99484.33
2023-03-24T06:07:26.984Z,99489.21
2023-03-24T06:10:55.293Z,99484.83
2023-03-24T06:14:22.780Z,99485.34
2023-03-24T06:18:01.160Z,99484.10
2023-03-24T06:21:35.393Z,99483.39
2023-03-24T06:25:05.235Z,99483.86
2023-03-24T06:28:34.677Z,99486.13
2023-03-24T06:32:05.713Z,99483.30
2023-03-24T06:35:38.312Z,99483.79
2023-03-24T06:39:09.734Z,99479.39
2023-03-24T06:42:37.630Z,99481.30
2023-03-24T06:46:05.450Z,99479.66
2023-03-24T06:49:34.901Z,99470.00
2023-03-24T06:53:01.988Z,99462.96
2023-03-24T06:56:30.690Z,99460.67
2023-03-24T06:59:59.047Z,99448.41
2023-03-24T07:03:30.758Z,99451.20
2023-03-24T07:07:56.996Z,99450.65
2023-03-24T07:11:29.258Z,99453.09
2023-03-24T07:15:00.462Z,99449.75
2023-03-24T07:18:28.219Z,99448.83
2023-03-24T07:21:59.951Z,99446.35
2023-03-24T07:25:37.699Z,99445.77
2023-03-24T07:29:18.452Z,99442.57
2023-03-24T07:33:12.162Z,99437.42
2023-03-24T07:36:39.569Z,99432.84
2023-03-24T07:40:12.935Z,99435.92
2023-03-24T07:43:40.185Z,99432.37
2023-03-24T07:47:25.429Z,99428.33
2023-03-24T07:50:55.173Z,99429.55
2023-03-24T07:54:41.043Z,99425.86
2023-03-24T07:58:09.243Z,99427.77
2023-03-24T08:01:39.045Z,99432.33
2023-03-24T08:05:10.373Z,99430.57
2023-03-24T08:08:49.584Z,99425.83
2023-03-24T08:12:20.513Z,99421.36
2023-03-24T08:15:48.329Z,99413.71
2023-03-24T08:19:16.538Z,99404.80
2023-03-24T08:22:45.014Z,99401.42
2023-03-24T08:26:13.182Z,99395.73
2023-03-24T08:29:40.682Z,99399.62
2023-03-24T08:33:08.434Z,99394.27
2023-03-24T08:36:36.509Z,99389.87
2023-03-24T08:40:05.675Z,99387.38
2023-03-24T08:43:33.768Z,99374.48
2023-03-24T08:47:01.865Z,99369.02
2023-03-24T08:50:31.495Z,99367.08
2023-03-24T08:53:56.949Z,99362.48
2023-03-24T08:57:24.298Z,99358.56
2023-03-24T09:00:52.217Z,99354.86
2023-03-24T09:04:19.423Z,99356.08
2023-03-24T09:07:47.419Z,99353.63
2023-03-24T09:11:20.328Z,99343.60
2023-03-24T09:14:52.260Z,99342.18
2023-03-24T09:18:21.614Z,99338.41
2023-03-24T09:21:50.257Z,99335.31
2023-03-24T09:25:22.668Z,99334.00
2023-03-24T09:28:49.775Z,99316.98
2023-03-24T09:32:16.868Z,99310.38
2023-03-24T09:35:44.620Z,99312.02
2023-03-24T09:39:11.733Z,99309.43
2023-03-24T09:42:42.444Z,99302.88
2023-03-24T09:46:16.109Z,99305.85
2023-03-24T09:49:45.524Z,99305.06
2023-03-24T09:53:29.108Z,99304.38
2023-03-24T09:56:58.796Z,99300.33
2023-03-24T10:00:28.992Z,99302.17
2023-03-24T10:04:00.497Z,99295.41
2023-03-24T10:07:33.879Z,99292.83
2023-03-24T10:11:06.368Z,99300.14
2023-03-24T10:14:51.355Z,99300.31
2023-03-24T10:18:36.036Z,99302.92
2023-03-24T10:22:12.386Z,99297.44
2023-03-24T10:25:51.209Z,99281.41
2023-03-24T10:29:26.402Z,99278.34
2023-03-24T10:32:55.167Z,99282.88
2023-03-24T10:36:25.203Z,99283.55
2023-03-24T10:39:53.494Z,99283.38
2023-03-24T10:43:23.727Z,99283.30
2023-03-24T10:46:55.382Z,99280.96
2023-03-24T10:50:28.393Z,99280.61
2023-03-24T10:54:17.501Z,99277.81
2023-03-24T10:57:47.564Z,99272.55
2023-03-24T11:01:26.313Z,99275.64
2023-03-24T11:04:58.961Z,99271.58
2023-03-24T11:08:32.962Z,99274.92
2023-03-24T11:12:06.235Z,99270.83
2023-03-24T11:15:37.426Z,99280.27
2023-03-24T11:19:07.792Z,99279.20
2023-03-24T11:22:34.942Z,99273.84
2023-03-24T11:26:16.868Z,99276.81
2023-03-24T11:29:50.008Z,99273.02
2023-03-24T11:33:36.159Z,99270.59
2023-03-24T11:37:06.410Z,99276.59
2023-03-24T11:40:33.892Z,99282.43
2023-03-24T11:44:17.154Z,99276.20
2023-03-24T11:47:46.239Z,99267.81
2023-03-24T11:51:18.996Z,99269.23
2023-03-24T11:54:46.748Z,99262.33
2023-03-24T11:58:25.009Z,99259.26
2023-03-24T12:02:00.526Z,99258.27
2023-03-24T12:05:38.006Z,99251.23
2023-03-24T12:09:15.068Z,99246.48
2023-03-24T12:12:51.707Z,99240.52
2023-03-24T12:16:39.802Z,99231.93
2023-03-24T12:20:18.355Z,99227.63
2023-03-24T12:23:58.578Z,99226.36
2023-03-24T12:27:36.848Z,99224.26
2023-03-24T12:31:16.182Z,99227.65
2023-03-24T12:35:22.655Z,99223.48
2023-03-24T12:39:02.555Z,99219.01
2023-03-24T12:42:38.930Z,99216.46
2023-03-24T12:46:17.279Z,99217.95
2023-03-24T12:49:54.213Z,99217.42
2023-03-24T12:53:53.806Z,99215.88
2023-03-24T12:57:26.309Z,99209.61
2023-03-24T13:01:02.994Z,99210.87
2023-03-24T13:04:34.947Z,99207.40
2023-03-24T13:08:06.658Z,99200.86
2023-03-24T13:11:41.404Z,99197.58
2023-03-24T13:15:17.490Z,99198.70
2023-03-24T13:18:48.822Z,99193.71
2023-03-24T13:22:21.509Z,99191.48
2023-03-24T13:25:55.441Z,99186.88
2023-03-24T13:29:48.496Z,99182.11
2023-03-24T13:33:21.357Z,99181.84
2023-03-24T13:36:52.810Z,99183.69
2023-03-24T13:40:26.864Z,99184.48
2023-03-24T13:44:02.594Z,99185.16
2023-03-24T13:47:48.469Z,99183.80
2023-03-24T13:51:21.738Z,99178.27
2023-03-24T13:54:52.080Z,99172.75
2023-03-24T13:58:23.847Z,99172.04
2023-03-24T14:02:21.999Z,99169.06
2023-03-24T14:06:04.863Z,99173.91
2023-03-24T14:09:34.237Z,99175.20
2023-03-24T14:13:19.451Z,99177.60
2023-03-24T14:16:53.133Z,99175.60
2023-03-24T14:20:40.050Z,99173.89
2023-03-24T14:24:23.970Z,99168.48
2023-03-24T14:27:53.466Z,99156.87
2023-03-24T14:31:29.290Z,99162.46
2023-03-24T14:35:00.226Z,99169.68
2023-03-24T14:38:28.927Z,99171.15
2023-03-24T14:41:59.021Z,99164.68
2023-03-24T14:46:01.384Z,99163.06
2023-03-24T14:49:33.692Z,99165.29
2023-03-24T14:53:04.177Z,99170.71
2023-03-24T14:56:37.015Z,99174.62
2023-03-24T15:00:12.052Z,99174.00
2023-03-24T15:03:50.927Z,99174.30
2023-03-24T15:07:18.739Z,99169.52
2023-03-24T15:10:50.975Z,99177.66
2023-03-24T15:14:24.946Z,99188.05
2023-03-24T15:17:53.142Z,99190.41
2023-03-24T15:21:27.616Z,99226.59
2023-03-24T15:24:59.507Z,99231.92
2023-03-24T15:28:29.782Z,99230.99
2023-03-24T15:31:57.031Z,99235.24
2023-03-24T15:35:25.575Z,99228.92
2023-03-24T15:38:53.593Z,99208.46
2023-03-24T15:42:24.378Z,99188.46
2023-03-24T15:46:08.881Z,99197.59
2023-03-24T15:49:39.987Z,99199.63
2023-03-24T15:53:24.719Z,99203.20
2023-03-24T15:57:11.750Z,99212.15
2023-03-24T16:00:42.447Z,99211.85
2023-03-24T16:04:14.373Z,99216.93
2023-03-24T16:07:42.844Z,99231.30
2023-03-24T16:11:12.202Z,99218.32
2023-03-24T16:14:40.038Z,99221.05
2023-03-24T16:18:07.709Z,99229.83
2023-03-24T16:21:34.756Z,99224.65
2023-03-24T16:25:03.710Z,99232.42
2023-03-24T16:28:32.818Z,99239.15
2023-03-24T16:32:01.062Z,99233.59
2023-03-24T16:35:28.654Z,99246.39
2023-03-24T16:38:57.753Z,99246.08
2023-03-24T16:42:24.784Z,99253.98
2023-03-24T16:45:53.163Z,99256.13
2023-03-24T16:49:23.076Z,99267.04
2023-03-24T16:52:50.485Z,99279.88
2023-03-24T16:56:19.924Z,99290.63
2023-03-24T16:59:46.964Z,99302.05
2023-03-24T17:03:14.999Z,99308.09
2023-03-24T17:06:44.502Z,99310.29
2023-03-24T17:10:12.543Z,99308.45
2023-03-24T17:13:39.608Z,99314.48
2023-03-24T17:17:11.522Z,99310.02
2023-03-24T17:20:40.121Z,99330.56
2023-03-24T17:24:10.993Z,99335.67
2023-03-24T17:27:38.230Z,99339.04
2023-03-24T17:31:05.472Z,99344.16
2023-03-24T17:34:32.539Z,99335.11
2023-03-24T17:37:59.548Z,99315.75
2023-03-24T17:41:26.615Z,99314.21
2023-03-24T17:44:53.780Z,99316.16
2023-03-24T17:48:22.332Z,99308.86
2023-03-24T17:51:52.579Z,99302.98
2023-03-24T17:55:25.811Z,99295.85
2023-03-24T17:58:58.950Z,99277.20
2023-03-24T18:02:27.753Z,99277.92
2023-03-24T18:05:56.246Z,99283.03
2023-03-24T18:09:25.789Z,99300.51
2023-03-24T18:12:55.161Z,99306.10
2023-03-24T18:16:22.451Z,99325.68
2023-03-24T18:19:50.379Z,99346.46
2023-03-24T18:23:17.574Z,99349.45
2023-03-24T18:26:44.768Z,99359.04
2023-03-24T18:30:14.801Z,99369.02
2023-03-24T18:33:42.996Z,99372.67
2023-03-24T18:37:10.111Z,99377.74
2023-03-24T18:40:37.145Z,99382.28
2023-03-24T18:44:05.735Z,99386.81
2023-03-24T18:47:32.788Z,99385.38
2023-03-24T18:50:59.973Z,99387.98
2023-03-24T18:54:27.387Z,99402.63
2023-03-24T18:57:54.785Z,99413.91
2023-03-24T19:01:23.594Z,99412.85
2023-03-24T19:04:51.037Z,99412.81
2023-03-24T19:08:19.005Z,99412.94
2023-03-24T19:11:46.343Z,99412.73
2023-03-24T19:15:15.313Z,99411.65
2023-03-24T19:18:43.994Z,99408.30
2023-03-24T19:22:11.759Z,99419.05
2023-03-24T19:25:42.756Z,99417.44
2023-03-24T19:29:10.448Z,99412.87
2023-03-24T19:32:40.143Z,99413.86
2023-03-24T19:36:06.638Z,99408.60
2023-03-24T19:39:34.672Z,99407.35
2023-03-24T19:43:05.798Z,99417.23
2023-03-24T19:46:35.130Z,99417.04
2023-03-24T19:50:04.119Z,99425.52
2023-03-24T19:53:32.019Z,99425.67
2023-03-24T19:56:59.802Z,99435.92
2023-03-24T20:00:30.104Z,99438.52
2023-03-24T20:03:58.634Z,99439.02
2023-03-24T20:07:26.684Z,99437.29
2023-03-24T20:10:55.235Z,99439.52
2023-03-24T20:14:24.473Z,99435.86
2023-03-24T20:17:54.151Z,99438.98
2023-03-24T20:21:24.104Z,99443.66
2023-03-24T20:24:51.606Z,99444.35
2023-03-24T20:28:19.128Z,99442.61
2023-03-24T20:31:46.324Z,99439.48
2023-03-24T20:35:14.048Z,99433.58
2023-03-24T20:38:41.656Z,99442.26
2023-03-24T20:42:08.763Z,99442.04
2023-03-24T20:45:35.777Z,99441.50
2023-03-24T20:49:02.786Z,99440.96
2023-03-24T20:52:30.085Z,99444.56
2023-03-24T20:56:01.995Z,99455.14
2023-03-24T20:59:30.147Z,99452.31
2023-03-24T21:02:57.565Z,99454.36
2023-03-24T21:06:25.075Z,99460.04
2023-03-24T21:09:52.175Z,99457.20
2023-03-24T21:13:21.653Z,99458.92
2023-03-24T21:16:49.250Z,99458.00
2023-03-24T21:20:16.838Z,99464.23
2023-03-24T21:23:44.479Z,99465.59
2023-03-24T21:27:11.606Z,99471.63
2023-03-24T21:30:39.640Z,99462.55
2023-03-24T21:34:06.760Z,99459.02
2023-03-24T21:37:33.912Z,99460.89
2023-03-24T21:41:02.133Z,99463.43
2023-03-24T21:44:30.169Z,99460.09
2023-03-24T21:47:57.519Z,99460.04
2023-03-24T21:51:26.756Z,99461.37
2023-03-24T21:54:58.367Z,99462.52
2023-03-24T21:58:26.300Z,99463.48
2023-03-24T22:01:53.576Z,99467.25
2023-03-24T22:05:23.167Z,99476.05
2023-03-24T22:08:50.622Z,99485.19
2023-03-24T22:12:17.690Z,99492.06
2023-03-24T22:15:44.682Z,99494.26
2023-03-24T22:19:11.646Z,99491.41
2023-03-24T22:22:39.931Z,99493.43
2023-03-24T22:26:09.270Z,99487.14
2023-03-24T22:29:36.338Z,99488.63
2023-03-24T22:33:03.455Z,99500.91
2023-03-24T22:36:30.637Z,99505.39
2023-03-24T22:39:57.792Z,99506.92
2023-03-24T22:43:24.845Z,99501.88
2023-03-24T22:46:52.082Z,99490.05
2023-03-24T22:50:19.564Z,99483.41
2023-03-24T22:53:47.234Z,99490.86
2023-03-24T22:57:14.297Z,99485.42
2023-03-24T23:00:41.725Z,99483.27
2023-03-24T23:04:09.039Z,99484.06
2023-03-24T23:07:36.095Z,99486.91
2023-03-24T23:11:04.152Z,99484.89
2023-03-24T23:14:31.414Z,99488.76
2023-03-24T23:17:58.576Z,99496.30
2023-03-24T23:21:25.729Z,99497.64
2023-03-24T23:25:02.390Z,99495.14
2023-03-24T23:28:31.861Z,99488.30
2023-03-24T23:31:59.049Z,99495.15
2023-03-24T23:35:26.665Z,99506.15
2023-03-24T23:38:54.784Z,99516.49
2023-03-24T23:42:21.811Z,99520.27
2023-03-24T23:45:49.781Z,99514.57
2023-03-24T23:49:17.268Z,99505.23
2023-03-24T23:52:45.121Z,99500.23
2023-03-24T23:56:14.978Z,99506.64
2023-03-24T23:59:40.390Z,99505.24
